Wilder, Tennessee
Current Conditions -  °F | °C
As of 2:27 AM on Sunday 23 Nov 2014 (Local Time) from KCSV Reporting Station
Overcast Overcast  
Wind Chill: 53°   Ceiling: 2300
Heat Index: 53°   Visibility: 10mi
Dew Point: 34°   Wind: 5mph
Humidity: 48%   Direction: NA
Pressure: 30.09"   Gusts: NA
Location:  36.27°N, 85.09°W
Report Text: KCSV 230827Z AUTO VRB04KT 10SM BKN023 OVC030 12/01 A3009 RMK AO2 T01170011
Loading
Personal Weather Stations






























Interactive Weather Map New forecast layout! Learn more

10-Day Weather Forecast

Advertisements
Track Severe Weather on mobile